Terminal Aerodrome Forecast
Issued by NWS Newport/Morehead City, NC

Home | Current Version | Previous Version | Text Only | Print | Product List | Glossary On
Versions: 1 2 3 4 5 6 7 8 9 10 11 12 13
000
FTUS42 KMHX 011300 AAA
TAFEWN
TAF AMD
KEWN 011321Z 0113/0212 06008KT 1SM +TSRA BR SCT005 BKN015CB
     FM011500 11010KT P6SM VCTS SCT025 BKN035CB
     FM020000 12006KT 6SM BR VCSH BKN035=

USA.gov is the U.S. government's official web portal to all federal, state and local government web resources and services.